Christina O — 9HA2344 — position and weather

sailwx.info

Track history (hours):
 
Tides and Currents Weather Stations Pressure Air Temp Water Temp Dewpoint Dewpoint Depression Visibility Wind Speed Wind Dir Waves Ship Positions

Christina O

Last reported at 2018-Jul-20 02:42 UTC. Time now 2018-Jul-20 08:33 UTC.
Position N 43°14' E 006°41'.

Length 97 m; draft 4.8 m.

MMSI: 248383000.

Date/timePositionNaut miles runAvg speedWind from/ knotsBaromVisibWave heightAir tempDewpointWater temp
2018-Jul-20 02:42N 43°14' E 006°41'0 0.0
2018-Jul-20 02:30N 43°14' E 006°41'0 0.0
2018-Jul-20 00:17N 43°14' E 006°41'0 0.0
2018-Jul-19 23:34N 43°14' E 006°41'15 0.8
2018-Jul-19 05:57N 43°22' E 006°57'817.2
2018-Jul-19 05:30N 43°27' E 007°05'917.1
2018-Jul-19 04:59N 43°33' E 007°14'1016.8
2018-Jul-19 04:23N 43°41' E 007°24'411.4
2018-Jul-19 04:00N 43°44' E 007°26'0 0.0
2018-Jul-19 03:29N 43°44' E 007°26'0 0.0
2018-Jul-19 03:00N 43°44' E 007°26'0 0.0
2018-Jul-19 02:30N 43°44' E 007°26'0 0.0
2018-Jul-19 02:00N 43°44' E 007°26'0 0.0
2018-Jul-19 01:30N 43°44' E 007°26'0 0.0
2018-Jul-19 01:00N 43°44' E 007°26'0 0.1
2018-Jul-19 00:30N 43°44' E 007°26'0 0.0
2018-Jul-19 00:00N 43°44' E 007°26'0 0.0
2018-Jul-18 23:30N 43°44' E 007°26'0 0.0
2018-Jul-18 23:00N 43°44' E 007°26'0 0.0
2018-Jul-18 22:30N 43°44' E 007°26'0 0.0
2018-Jul-18 22:00N 43°44' E 007°26'0 0.0
2018-Jul-18 21:30N 43°44' E 007°26'0 0.0
2018-Jul-18 21:00N 43°44' E 007°26'0 0.0
2018-Jul-18 20:30N 43°44' E 007°26'0 0.0
2018-Jul-18 20:00N 43°44' E 007°26'0 0.0
2018-Jul-18 19:30N 43°44' E 007°26'0 0.0
2018-Jul-18 19:00N 43°44' E 007°26'0 0.0
2018-Jul-18 18:30N 43°44' E 007°26'0 0.0
2018-Jul-18 18:00N 43°44' E 007°26'0 0.0
2018-Jul-18 17:30N 43°44' E 007°26'0 0.0
2018-Jul-18 17:00N 43°44' E 007°26'0 0.0
2018-Jul-18 16:30N 43°44' E 007°26'0 0.0
2018-Jul-18 16:00N 43°44' E 007°26'0 0.0
2018-Jul-18 15:30N 43°44' E 007°26'0 0.0
2018-Jul-18 15:00N 43°44' E 007°26'0 0.1
2018-Jul-18 14:30N 43°44' E 007°26'2 2.0
2018-Jul-18 13:30N 43°42' E 007°26'815.3
2018-Jul-18 13:00N 43°37' E 007°18'916.1
2018-Jul-18 12:29N 43°32' E 007°09'5 1.9
2018-Jul-18 10:02N 43°32' E 007°03'0 0.0
2018-Jul-18 09:54N 43°32' E 007°03'0 0.0
2018-Jul-18 09:25N 43°32' E 007°03'0 0.0
2018-Jul-18 08:56N 43°32' E 007°03'0 0.0
2018-Jul-18 08:27N 43°32' E 007°03'0 0.0
2018-Jul-18 07:55N 43°32' E 007°03'0 0.0
2018-Jul-18 07:28N 43°32' E 007°03'0 0.0
2018-Jul-18 06:56N 43°32' E 007°03'0 0.0
2018-Jul-18 06:23N 43°32' E 007°03'0 0.0
2018-Jul-18 05:51N 43°32' E 007°03'0 0.0
2018-Jul-18 05:20N 43°32' E 007°03'0 0.0
2018-Jul-18 04:58N 43°32' E 007°03'0 0.0
2018-Jul-18 04:21N 43°32' E 007°03'0 0.0
2018-Jul-18 03:54N 43°32' E 007°03'0 0.0
2018-Jul-18 03:30N 43°32' E 007°03'0 0.0
2018-Jul-18 02:54N 43°32' E 007°03'0 0.0
2018-Jul-18 02:24N 43°32' E 007°03'0 0.0
2018-Jul-18 01:58N 43°32' E 007°03'0 0.0
2018-Jul-18 01:25N 43°32' E 007°03'0 0.0
2018-Jul-18 00:55N 43°32' E 007°03'0 0.0
2018-Jul-18 00:27N 43°32' E 007°03'0 0.0
2018-Jul-18 00:00N 43°32' E 007°03'0 0.0
2018-Jul-17 23:30N 43°32' E 007°03'0 0.0
2018-Jul-17 22:58N 43°32' E 007°03'0 0.0
2018-Jul-17 22:26N 43°32' E 007°03'0 0.0
2018-Jul-17 20:45N 43°32' E 007°03'0 0.0
2018-Jul-17 20:21N 43°32' E 007°03'0 0.0
2018-Jul-17 20:00N 43°32' E 007°03'0 0.0
2018-Jul-17 18:50N 43°32' E 007°03'0 0.0
2018-Jul-17 18:30N 43°32' E 007°03'0 0.0
2018-Jul-17 18:00N 43°32' E 007°03'0 0.0
2018-Jul-17 17:29N 43°32' E 007°03'0 0.0
2018-Jul-17 16:58N 43°32' E 007°03'0 0.0
2018-Jul-17 16:29N 43°32' E 007°03'0 0.0
2018-Jul-17 15:58N 43°32' E 007°03'0 0.0
2018-Jul-17 15:29N 43°32' E 007°03'0 0.0
2018-Jul-17 14:58N 43°32' E 007°03'3 6.1
2018-Jul-17 14:29N 43°31' E 007°07'612.3
2018-Jul-17 13:58N 43°35' E 007°14'916.4
2018-Jul-17 13:26N 43°40' E 007°23'5 8.0
2018-Jul-17 12:50N 43°44' E 007°27'0 0.0
2018-Jul-17 09:30N 43°44' E 007°27'0 0.0
2018-Jul-17 08:47N 43°44' E 007°27'0 0.0
2018-Jul-17 08:25N 43°44' E 007°27'0 1.0
2018-Jul-17 08:00N 43°44' E 007°27'0 0.0
2018-Jul-17 05:31N 43°44' E 007°27'0 0.1
2018-Jul-17 05:25N 43°44' E 007°27'0 0.0
2018-Jul-16 18:49N 43°44' E 007°27'0 0.0
2018-Jul-16 18:26N 43°44' E 007°27'0 0.1
2018-Jul-16 17:59N 43°44' E 007°27'0 0.0
2018-Jul-16 17:29N 43°44' E 007°27'0 0.1
2018-Jul-16 16:59N 43°44' E 007°27'0 0.0
2018-Jul-16 16:29N 43°44' E 007°27'0 0.1
2018-Jul-16 15:55N 43°44' E 007°27'0 0.1
2018-Jul-16 15:29N 43°44' E 007°27'0 0.5
2018-Jul-16 14:59N 43°44' E 007°27'0 0.7
2018-Jul-16 14:30N 43°44' E 007°26'0 0.1
2018-Jul-16 13:54N 43°44' E 007°26'0 0.1
2018-Jul-16 13:23N 43°44' E 007°26'0 0.0
2018-Jul-16 13:00N 43°44' E 007°26'0 0.1
2018-Jul-16 12:28N 43°44' E 007°26'0 0.1
2018-Jul-16 11:58N 43°44' E 007°26'0 0.1
2018-Jul-16 11:28N 43°44' E 007°26'0 0.0
2018-Jul-16 10:59N 43°44' E 007°26'0 0.0
2018-Jul-16 10:30N 43°44' E 007°26'0 0.0
2018-Jul-16 09:58N 43°44' E 007°26'0 0.0
2018-Jul-16 09:28N 43°44' E 007°26'0 0.0
2018-Jul-16 08:59N 43°44' E 007°26'0 0.0
2018-Jul-16 08:30N 43°44' E 007°26'0 0.0
2018-Jul-16 08:00N 43°44' E 007°26'0 0.0
2018-Jul-16 07:30N 43°44' E 007°26'0 0.0
2018-Jul-16 06:56N 43°44' E 007°26'0 0.1
2018-Jul-16 06:28N 43°44' E 007°27'0 0.0
2018-Jul-16 05:59N 43°44' E 007°27'0 0.1
2018-Jul-16 05:26N 43°44' E 007°26'0 0.0
2018-Jul-16 04:59N 43°44' E 007°27'0 0.0
2018-Jul-16 04:29N 43°44' E 007°27'0 0.0
2018-Jul-16 04:00N 43°44' E 007°27'0 0.0
2018-Jul-16 03:30N 43°44' E 007°27'0 0.1
2018-Jul-16 02:59N 43°44' E 007°27'0 0.0
2018-Jul-16 02:26N 43°44' E 007°27'0 0.0
2018-Jul-16 01:59N 43°44' E 007°27'0 0.0
2018-Jul-16 01:26N 43°44' E 007°27'0 0.1
2018-Jul-16 00:59N 43°44' E 007°27'0 0.0
2018-Jul-16 00:28N 43°44' E 007°27'0 0.3
2018-Jul-15 23:57N 43°44' E 007°26'0 0.5
2018-Jul-15 23:25N 43°44' E 007°27'0 0.0
2018-Jul-15 22:59N 43°44' E 007°27'0 0.0
2018-Jul-15 22:29N 43°44' E 007°27'0 0.0
2018-Jul-15 22:00N 43°44' E 007°27'0 0.0
2018-Jul-15 21:29N 43°44' E 007°27'0 0.0
2018-Jul-15 21:00N 43°44' E 007°27'0 0.0
2018-Jul-15 20:30N 43°44' E 007°27'0 0.0
2018-Jul-15 19:55N 43°44' E 007°27'0 0.0
2018-Jul-15 19:28N 43°44' E 007°27'0 0.0
2018-Jul-15 18:59N 43°44' E 007°27'0 0.0
2018-Jul-15 18:25N 43°44' E 007°27'0 0.0
2018-Jul-15 18:00N 43°44' E 007°27'0 0.0
2018-Jul-15 17:28N 43°44' E 007°27'0 0.0
2018-Jul-15 17:00N 43°44' E 007°27'0 0.0
2018-Jul-15 16:24N 43°44' E 007°27'0 0.0
2018-Jul-15 16:00N 43°44' E 007°27'0 0.0
2018-Jul-15 15:30N 43°44' E 007°27'0 0.5
2018-Jul-15 15:00N 43°44' E 007°27'2 3.7
2018-Jul-15 14:30N 43°44' E 007°29'1816.3
2018-Jul-15 13:24N 43°37' E 007°52'716.4
2018-Jul-15 12:58N 43°34' E 008°02'816.1
2018-Jul-15 12:30N 43°32' E 008°11'816.0
2018-Jul-15 12:00N 43°29' E 008°21'1416.1
2018-Jul-15 11:07N 43°23' E 008°40'216.4
2018-Jul-15 11:00N 43°23' E 008°42'816.5
2018-Jul-15 10:30N 43°20' E 008°53'816.6
2018-Jul-15 10:00N 43°17' E 009°03'816.4
2018-Jul-15 09:30N 43°14' E 009°14'816.6
2018-Jul-15 09:00N 43°11' E 009°24'2914.8
2018-Jul-15 07:03N 42°47' E 009°47'1716.3
2018-Jul-15 05:58N 42°39' E 010°09'816.4
2018-Jul-15 05:30N 42°34' E 010°17'816.3
2018-Jul-15 05:00N 42°29' E 010°25'916.2
2018-Jul-15 04:26N 42°23' E 010°34'716.4
2018-Jul-15 04:00N 42°18' E 010°41'816.6
2018-Jul-15 03:30N 42°12' E 010°50'816.8
2018-Jul-15 03:00N 42°07' E 010°58'1216.7
2018-Jul-15 02:17N 41°59' E 011°10'716.6
2018-Jul-15 01:52N 41°54' E 011°17'4716.5
2018-Jul-14 23:00N 41°23' E 012°04'916.9
2018-Jul-14 22:28N 41°17' E 012°14'816.6
2018-Jul-14 22:00N 41°12' E 012°21'816.4
2018-Jul-14 21:30N 41°07' E 012°29'916.4
2018-Jul-14 20:57N 41°00' E 012°38'1616.4
2018-Jul-14 20:00N 40°50' E 012°54'2116.1
2018-Jul-14 18:43N 40°44' E 013°20'1015.9
2018-Jul-14 18:05N 40°42' E 013°33'116.1
2018-Jul-14 18:00N 40°41' E 013°34'816.2
2018-Jul-14 17:30N 40°40' E 013°45'816.1
2018-Jul-14 17:00N 40°39' E 013°55'815.6
2018-Jul-14 16:30N 40°40' E 014°05'816.5
2018-Jul-14 16:00N 40°46' E 014°14'5 8.5
2018-Jul-14 15:26N 40°50' E 014°15'0 0.0
2018-Jul-14 14:57N 40°50' E 014°15'0 0.0
2018-Jul-14 14:00N 40°50' E 014°15'0 0.0
2018-Jul-14 13:30N 40°50' E 014°15'0 0.0
2018-Jul-14 13:00N 40°50' E 014°15'0 0.0
2018-Jul-14 12:24N 40°50' E 014°15'0 0.0
2018-Jul-14 12:00N 40°50' E 014°15'0 0.0
2018-Jul-14 11:28N 40°50' E 014°15'0 0.0
2018-Jul-14 10:58N 40°50' E 014°15'0 0.0
2018-Jul-14 10:29N 40°50' E 014°15'0 0.0
2018-Jul-14 09:58N 40°50' E 014°15'0 0.0
2018-Jul-14 09:29N 40°50' E 014°15'1 2.5
2018-Jul-14 09:00N 40°50' E 014°17'2 4.3
2018-Jul-14 08:30N 40°48' E 014°17'713.8
2018-Jul-14 08:00N 40°41' E 014°17'815.8
2018-Jul-14 07:30N 40°33' E 014°19'714.8
2018-Jul-14 07:00N 40°34' E 014°28'3 5.1
2018-Jul-14 06:27N 40°37' E 014°30'0 0.0
2018-Jul-14 05:58N 40°37' E 014°30'0 0.0
2018-Jul-14 05:28N 40°37' E 014°30'0 0.0
2018-Jul-14 04:58N 40°37' E 014°30'0 0.0
2018-Jul-14 04:28N 40°37' E 014°30'0 0.0
2018-Jul-14 03:58N 40°37' E 014°30'0 0.0
2018-Jul-14 03:30N 40°37' E 014°30'0 0.0
2018-Jul-14 03:00N 40°37' E 014°30'0 0.0
2018-Jul-14 02:29N 40°37' E 014°30'0 0.0
2018-Jul-14 01:59N 40°37' E 014°30'0 0.0
2018-Jul-14 01:29N 40°37' E 014°30'0 0.0
2018-Jul-14 00:57N 40°37' E 014°30'0 0.0
2018-Jul-14 00:18N 40°37' E 014°30'0 0.0
2018-Jul-13 23:57N 40°37' E 014°30'0 0.0
2018-Jul-13 23:25N 40°37' E 014°30'0 0.0
2018-Jul-13 22:58N 40°37' E 014°30'0 0.0
2018-Jul-13 22:22N 40°37' E 014°30'0 0.0
2018-Jul-13 21:48N 40°37' E 014°30'0 0.0
2018-Jul-13 21:28N 40°37' E 014°30'0 0.0
2018-Jul-13 20:56N 40°37' E 014°30'0 0.0
2018-Jul-13 19:28N 40°37' E 014°30'0 0.0
2018-Jul-13 18:41N 40°37' E 014°30'0 0.0
2018-Jul-13 18:22N 40°37' E 014°30'0 0.0
2018-Jul-13 17:59N 40°37' E 014°30'0 0.0
2018-Jul-13 17:30N 40°37' E 014°30'0 0.0
2018-Jul-13 16:39N 40°37' E 014°30'0 0.0
2018-Jul-13 16:25N 40°37' E 014°30'0 0.0
2018-Jul-13 16:00N 40°37' E 014°30'0 0.2
2018-Jul-13 15:30N 40°37' E 014°30'4 8.9
2018-Jul-13 15:00N 40°33' E 014°27'815.4
2018-Jul-13 14:30N 40°34' E 014°17'2 1.8
2018-Jul-13 13:30N 40°34' E 014°14'0 0.0
2018-Jul-13 13:00N 40°34' E 014°14'0 0.0
2018-Jul-13 12:30N 40°34' E 014°14'0 0.0
2018-Jul-13 12:00N 40°34' E 014°14'0 0.0
2018-Jul-13 11:30N 40°34' E 014°14'0 0.0
2018-Jul-13 11:00N 40°34' E 014°14'0 0.0
2018-Jul-13 10:30N 40°34' E 014°14'0 0.0
2018-Jul-13 10:00N 40°34' E 014°14'0 0.0
2018-Jul-13 09:30N 40°34' E 014°14'0 0.0
2018-Jul-13 09:00N 40°34' E 014°14'0 0.0
2018-Jul-13 08:29N 40°34' E 014°14'0 0.0
2018-Jul-13 08:00N 40°34' E 014°14'0 0.0
2018-Jul-13 07:31N 40°34' E 014°14'0 0.0
2018-Jul-13 07:00N 40°34' E 014°14'0 0.0
2018-Jul-13 06:30N 40°34' E 014°14'0 0.7
2018-Jul-13 06:00N 40°34' E 014°14'4 8.1
2018-Jul-13 05:30N 40°35' E 014°09'816.0
2018-Jul-13 05:00N 40°37' E 013°59'209 4.9
2018-Jul-11 10:05N 42°49' E 010°21'0 0.1
2018-Jul-11 09:59N 42°48' E 010°21'0 0.0
2018-Jul-11 09:20N 42°49' E 010°21'8 0.4
2018-Jul-10 15:44N 42°41' E 010°25'313.0
2018-Jul-10 15:28N 42°43' E 010°21'  
Track history (hours):
 
Tides and Currents Weather Stations Pressure Air Temp Water Temp Dewpoint Dewpoint Depression Visibility Wind Speed Wind Dir Waves Ship Positions

Christina O

Last reported at 2018-Jul-20 02:42 UTC. Time now 2018-Jul-20 08:33 UTC.
Position N 43°14' E 006°41'.

Length 97 m; draft 4.8 m.

MMSI: 248383000.

Date/timePositionNaut miles runAvg speedWind from/ knotsBaromVisibWave heightAir tempDewpointWater temp
2018-Jul-20 02:42N 43°14' E 006°41'0 0.0
2018-Jul-20 02:30N 43°14' E 006°41'0 0.0
2018-Jul-20 00:17N 43°14' E 006°41'0 0.0
2018-Jul-19 23:34N 43°14' E 006°41'15 0.8
2018-Jul-19 05:57N 43°22' E 006°57'817.2
2018-Jul-19 05:30N 43°27' E 007°05'917.1
2018-Jul-19 04:59N 43°33' E 007°14'1016.8
2018-Jul-19 04:23N 43°41' E 007°24'411.4
2018-Jul-19 04:00N 43°44' E 007°26'0 0.0
2018-Jul-19 03:29N 43°44' E 007°26'0 0.0
2018-Jul-19 03:00N 43°44' E 007°26'0 0.0
2018-Jul-19 02:30N 43°44' E 007°26'0 0.0
2018-Jul-19 02:00N 43°44' E 007°26'0 0.0
2018-Jul-19 01:30N 43°44' E 007°26'0 0.0
2018-Jul-19 01:00N 43°44' E 007°26'0 0.1
2018-Jul-19 00:30N 43°44' E 007°26'0 0.0
2018-Jul-19 00:00N 43°44' E 007°26'0 0.0
2018-Jul-18 23:30N 43°44' E 007°26'0 0.0
2018-Jul-18 23:00N 43°44' E 007°26'0 0.0
2018-Jul-18 22:30N 43°44' E 007°26'0 0.0
2018-Jul-18 22:00N 43°44' E 007°26'0 0.0
2018-Jul-18 21:30N 43°44' E 007°26'0 0.0
2018-Jul-18 21:00N 43°44' E 007°26'0 0.0
2018-Jul-18 20:30N 43°44' E 007°26'0 0.0
2018-Jul-18 20:00N 43°44' E 007°26'0 0.0
2018-Jul-18 19:30N 43°44' E 007°26'0 0.0
2018-Jul-18 19:00N 43°44' E 007°26'0 0.0
2018-Jul-18 18:30N 43°44' E 007°26'0 0.0
2018-Jul-18 18:00N 43°44' E 007°26'0 0.0
2018-Jul-18 17:30N 43°44' E 007°26'0 0.0
2018-Jul-18 17:00N 43°44' E 007°26'0 0.0
2018-Jul-18 16:30N 43°44' E 007°26'0 0.0
2018-Jul-18 16:00N 43°44' E 007°26'0 0.0
2018-Jul-18 15:30N 43°44' E 007°26'0 0.0
2018-Jul-18 15:00N 43°44' E 007°26'0 0.1
2018-Jul-18 14:30N 43°44' E 007°26'2 2.0
2018-Jul-18 13:30N 43°42' E 007°26'815.3
2018-Jul-18 13:00N 43°37' E 007°18'916.1
2018-Jul-18 12:29N 43°32' E 007°09'5 1.9
2018-Jul-18 10:02N 43°32' E 007°03'0 0.0
2018-Jul-18 09:54N 43°32' E 007°03'0 0.0
2018-Jul-18 09:25N 43°32' E 007°03'0 0.0
2018-Jul-18 08:56N 43°32' E 007°03'0 0.0
2018-Jul-18 08:27N 43°32' E 007°03'0 0.0
2018-Jul-18 07:55N 43°32' E 007°03'0 0.0
2018-Jul-18 07:28N 43°32' E 007°03'0 0.0
2018-Jul-18 06:56N 43°32' E 007°03'0 0.0
2018-Jul-18 06:23N 43°32' E 007°03'0 0.0
2018-Jul-18 05:51N 43°32' E 007°03'0 0.0
2018-Jul-18 05:20N 43°32' E 007°03'0 0.0
2018-Jul-18 04:58N 43°32' E 007°03'0 0.0
2018-Jul-18 04:21N 43°32' E 007°03'0 0.0
2018-Jul-18 03:54N 43°32' E 007°03'0 0.0
2018-Jul-18 03:30N 43°32' E 007°03'0 0.0
2018-Jul-18 02:54N 43°32' E 007°03'0 0.0
2018-Jul-18 02:24N 43°32' E 007°03'0 0.0
2018-Jul-18 01:58N 43°32' E 007°03'0 0.0
2018-Jul-18 01:25N 43°32' E 007°03'0 0.0
2018-Jul-18 00:55N 43°32' E 007°03'0 0.0
2018-Jul-18 00:27N 43°32' E 007°03'0 0.0
2018-Jul-18 00:00N 43°32' E 007°03'0 0.0
2018-Jul-17 23:30N 43°32' E 007°03'0 0.0
2018-Jul-17 22:58N 43°32' E 007°03'0 0.0
2018-Jul-17 22:26N 43°32' E 007°03'0 0.0
2018-Jul-17 20:45N 43°32' E 007°03'0 0.0
2018-Jul-17 20:21N 43°32' E 007°03'0 0.0
2018-Jul-17 20:00N 43°32' E 007°03'0 0.0
2018-Jul-17 18:50N 43°32' E 007°03'0 0.0
2018-Jul-17 18:30N 43°32' E 007°03'0 0.0
2018-Jul-17 18:00N 43°32' E 007°03'0 0.0
2018-Jul-17 17:29N 43°32' E 007°03'0 0.0
2018-Jul-17 16:58N 43°32' E 007°03'0 0.0
2018-Jul-17 16:29N 43°32' E 007°03'0 0.0
2018-Jul-17 15:58N 43°32' E 007°03'0 0.0
2018-Jul-17 15:29N 43°32' E 007°03'0 0.0
2018-Jul-17 14:58N 43°32' E 007°03'3 6.1
2018-Jul-17 14:29N 43°31' E 007°07'612.3
2018-Jul-17 13:58N 43°35' E 007°14'916.4
2018-Jul-17 13:26N 43°40' E 007°23'5 8.0
2018-Jul-17 12:50N 43°44' E 007°27'0 0.0
2018-Jul-17 09:30N 43°44' E 007°27'0 0.0
2018-Jul-17 08:47N 43°44' E 007°27'0 0.0
2018-Jul-17 08:25N 43°44' E 007°27'0 1.0
2018-Jul-17 08:00N 43°44' E 007°27'0 0.0
2018-Jul-17 05:31N 43°44' E 007°27'0 0.1
2018-Jul-17 05:25N 43°44' E 007°27'0 0.0
2018-Jul-16 18:49N 43°44' E 007°27'0 0.0
2018-Jul-16 18:26N 43°44' E 007°27'0 0.1
2018-Jul-16 17:59N 43°44' E 007°27'0 0.0
2018-Jul-16 17:29N 43°44' E 007°27'0 0.1
2018-Jul-16 16:59N 43°44' E 007°27'0 0.0
2018-Jul-16 16:29N 43°44' E 007°27'0 0.1
2018-Jul-16 15:55N 43°44' E 007°27'0 0.1
2018-Jul-16 15:29N 43°44' E 007°27'0 0.5
2018-Jul-16 14:59N 43°44' E 007°27'0 0.7
2018-Jul-16 14:30N 43°44' E 007°26'0 0.1
2018-Jul-16 13:54N 43°44' E 007°26'0 0.1
2018-Jul-16 13:23N 43°44' E 007°26'0 0.0
2018-Jul-16 13:00N 43°44' E 007°26'0 0.1
2018-Jul-16 12:28N 43°44' E 007°26'0 0.1
2018-Jul-16 11:58N 43°44' E 007°26'0 0.1
2018-Jul-16 11:28N 43°44' E 007°26'0 0.0
2018-Jul-16 10:59N 43°44' E 007°26'0 0.0
2018-Jul-16 10:30N 43°44' E 007°26'0 0.0
2018-Jul-16 09:58N 43°44' E 007°26'0 0.0
2018-Jul-16 09:28N 43°44' E 007°26'0 0.0
2018-Jul-16 08:59N 43°44' E 007°26'0 0.0
2018-Jul-16 08:30N 43°44' E 007°26'0 0.0
2018-Jul-16 08:00N 43°44' E 007°26'0 0.0
2018-Jul-16 07:30N 43°44' E 007°26'0 0.0
2018-Jul-16 06:56N 43°44' E 007°26'0 0.1
2018-Jul-16 06:28N 43°44' E 007°27'0 0.0
2018-Jul-16 05:59N 43°44' E 007°27'0 0.1
2018-Jul-16 05:26N 43°44' E 007°26'0 0.0
2018-Jul-16 04:59N 43°44' E 007°27'0 0.0
2018-Jul-16 04:29N 43°44' E 007°27'0 0.0
2018-Jul-16 04:00N 43°44' E 007°27'0 0.0
2018-Jul-16 03:30N 43°44' E 007°27'0 0.1
2018-Jul-16 02:59N 43°44' E 007°27'0 0.0
2018-Jul-16 02:26N 43°44' E 007°27'0 0.0
2018-Jul-16 01:59N 43°44' E 007°27'0 0.0
2018-Jul-16 01:26N 43°44' E 007°27'0 0.1
2018-Jul-16 00:59N 43°44' E 007°27'0 0.0
2018-Jul-16 00:28N 43°44' E 007°27'0 0.3
2018-Jul-15 23:57N 43°44' E 007°26'0 0.5
2018-Jul-15 23:25N 43°44' E 007°27'0 0.0
2018-Jul-15 22:59N 43°44' E 007°27'0 0.0
2018-Jul-15 22:29N 43°44' E 007°27'0 0.0
2018-Jul-15 22:00N 43°44' E 007°27'0 0.0
2018-Jul-15 21:29N 43°44' E 007°27'0 0.0
2018-Jul-15 21:00N 43°44' E 007°27'0 0.0
2018-Jul-15 20:30N 43°44' E 007°27'0 0.0
2018-Jul-15 19:55N 43°44' E 007°27'0 0.0
2018-Jul-15 19:28N 43°44' E 007°27'0 0.0
2018-Jul-15 18:59N 43°44' E 007°27'0 0.0
2018-Jul-15 18:25N 43°44' E 007°27'0 0.0
2018-Jul-15 18:00N 43°44' E 007°27'0 0.0
2018-Jul-15 17:28N 43°44' E 007°27'0 0.0
2018-Jul-15 17:00N 43°44' E 007°27'0 0.0
2018-Jul-15 16:24N 43°44' E 007°27'0 0.0
2018-Jul-15 16:00N 43°44' E 007°27'0 0.0
2018-Jul-15 15:30N 43°44' E 007°27'0 0.5
2018-Jul-15 15:00N 43°44' E 007°27'2 3.7
2018-Jul-15 14:30N 43°44' E 007°29'1816.3
2018-Jul-15 13:24N 43°37' E 007°52'716.4
2018-Jul-15 12:58N 43°34' E 008°02'816.1
2018-Jul-15 12:30N 43°32' E 008°11'816.0
2018-Jul-15 12:00N 43°29' E 008°21'1416.1
2018-Jul-15 11:07N 43°23' E 008°40'216.4
2018-Jul-15 11:00N 43°23' E 008°42'816.5
2018-Jul-15 10:30N 43°20' E 008°53'816.6
2018-Jul-15 10:00N 43°17' E 009°03'816.4
2018-Jul-15 09:30N 43°14' E 009°14'816.6
2018-Jul-15 09:00N 43°11' E 009°24'2914.8
2018-Jul-15 07:03N 42°47' E 009°47'1716.3
2018-Jul-15 05:58N 42°39' E 010°09'816.4
2018-Jul-15 05:30N 42°34' E 010°17'816.3
2018-Jul-15 05:00N 42°29' E 010°25'916.2
2018-Jul-15 04:26N 42°23' E 010°34'716.4
2018-Jul-15 04:00N 42°18' E 010°41'816.6
2018-Jul-15 03:30N 42°12' E 010°50'816.8
2018-Jul-15 03:00N 42°07' E 010°58'1216.7
2018-Jul-15 02:17N 41°59' E 011°10'716.6
2018-Jul-15 01:52N 41°54' E 011°17'4716.5
2018-Jul-14 23:00N 41°23' E 012°04'916.9
2018-Jul-14 22:28N 41°17' E 012°14'816.6
2018-Jul-14 22:00N 41°12' E 012°21'816.4
2018-Jul-14 21:30N 41°07' E 012°29'916.4
2018-Jul-14 20:57N 41°00' E 012°38'1616.4
2018-Jul-14 20:00N 40°50' E 012°54'2116.1
2018-Jul-14 18:43N 40°44' E 013°20'1015.9
2018-Jul-14 18:05N 40°42' E 013°33'116.1
2018-Jul-14 18:00N 40°41' E 013°34'816.2
2018-Jul-14 17:30N 40°40' E 013°45'816.1
2018-Jul-14 17:00N 40°39' E 013°55'815.6
2018-Jul-14 16:30N 40°40' E 014°05'816.5
2018-Jul-14 16:00N 40°46' E 014°14'5 8.5
2018-Jul-14 15:26N 40°50' E 014°15'0 0.0
2018-Jul-14 14:57N 40°50' E 014°15'0 0.0
2018-Jul-14 14:00N 40°50' E 014°15'0 0.0
2018-Jul-14 13:30N 40°50' E 014°15'0 0.0
2018-Jul-14 13:00N 40°50' E 014°15'0 0.0
2018-Jul-14 12:24N 40°50' E 014°15'0 0.0
2018-Jul-14 12:00N 40°50' E 014°15'0 0.0
2018-Jul-14 11:28N 40°50' E 014°15'0 0.0
2018-Jul-14 10:58N 40°50' E 014°15'0 0.0
2018-Jul-14 10:29N 40°50' E 014°15'0 0.0
2018-Jul-14 09:58N 40°50' E 014°15'0 0.0
2018-Jul-14 09:29N 40°50' E 014°15'1 2.5
2018-Jul-14 09:00N 40°50' E 014°17'2 4.3
2018-Jul-14 08:30N 40°48' E 014°17'713.8
2018-Jul-14 08:00N 40°41' E 014°17'815.8
2018-Jul-14 07:30N 40°33' E 014°19'714.8
2018-Jul-14 07:00N 40°34' E 014°28'3 5.1
2018-Jul-14 06:27N 40°37' E 014°30'0 0.0
2018-Jul-14 05:58N 40°37' E 014°30'0 0.0
2018-Jul-14 05:28N 40°37' E 014°30'0 0.0
2018-Jul-14 04:58N 40°37' E 014°30'0 0.0
2018-Jul-14 04:28N 40°37' E 014°30'0 0.0
2018-Jul-14 03:58N 40°37' E 014°30'0 0.0
2018-Jul-14 03:30N 40°37' E 014°30'0 0.0
2018-Jul-14 03:00N 40°37' E 014°30'0 0.0
2018-Jul-14 02:29N 40°37' E 014°30'0 0.0
2018-Jul-14 01:59N 40°37' E 014°30'0 0.0
2018-Jul-14 01:29N 40°37' E 014°30'0 0.0
2018-Jul-14 00:57N 40°37' E 014°30'0 0.0
2018-Jul-14 00:18N 40°37' E 014°30'0 0.0
2018-Jul-13 23:57N 40°37' E 014°30'0 0.0
2018-Jul-13 23:25N 40°37' E 014°30'0 0.0
2018-Jul-13 22:58N 40°37' E 014°30'0 0.0
2018-Jul-13 22:22N 40°37' E 014°30'0 0.0
2018-Jul-13 21:48N 40°37' E 014°30'0 0.0
2018-Jul-13 21:28N 40°37' E 014°30'0 0.0
2018-Jul-13 20:56N 40°37' E 014°30'0 0.0
2018-Jul-13 19:28N 40°37' E 014°30'0 0.0
2018-Jul-13 18:41N 40°37' E 014°30'0 0.0
2018-Jul-13 18:22N 40°37' E 014°30'0 0.0
2018-Jul-13 17:59N 40°37' E 014°30'0 0.0
2018-Jul-13 17:30N 40°37' E 014°30'0 0.0
2018-Jul-13 16:39N 40°37' E 014°30'0 0.0
2018-Jul-13 16:25N 40°37' E 014°30'0 0.0
2018-Jul-13 16:00N 40°37' E 014°30'0 0.2
2018-Jul-13 15:30N 40°37' E 014°30'4 8.9
2018-Jul-13 15:00N 40°33' E 014°27'815.4
2018-Jul-13 14:30N 40°34' E 014°17'2 1.8
2018-Jul-13 13:30N 40°34' E 014°14'0 0.0
2018-Jul-13 13:00N 40°34' E 014°14'0 0.0
2018-Jul-13 12:30N 40°34' E 014°14'0 0.0
2018-Jul-13 12:00N 40°34' E 014°14'0 0.0
2018-Jul-13 11:30N 40°34' E 014°14'0 0.0
2018-Jul-13 11:00N 40°34' E 014°14'0 0.0
2018-Jul-13 10:30N 40°34' E 014°14'0 0.0
2018-Jul-13 10:00N 40°34' E 014°14'0 0.0
2018-Jul-13 09:30N 40°34' E 014°14'0 0.0
2018-Jul-13 09:00N 40°34' E 014°14'0 0.0
2018-Jul-13 08:29N 40°34' E 014°14'0 0.0
2018-Jul-13 08:00N 40°34' E 014°14'0 0.0
2018-Jul-13 07:31N 40°34' E 014°14'0 0.0
2018-Jul-13 07:00N 40°34' E 014°14'0 0.0
2018-Jul-13 06:30N 40°34' E 014°14'0 0.7
2018-Jul-13 06:00N 40°34' E 014°14'4 8.1
2018-Jul-13 05:30N 40°35' E 014°09'816.0
2018-Jul-13 05:00N 40°37' E 013°59'209 4.9
2018-Jul-11 10:05N 42°49' E 010°21'0 0.1
2018-Jul-11 09:59N 42°48' E 010°21'0 0.0
2018-Jul-11 09:20N 42°49' E 010°21'8 0.4
2018-Jul-10 15:44N 42°41' E 010°25'313.0
2018-Jul-10 15:28N 42°43' E 010°21'  

Dump ship's entire track history